Nearby METAR Reports

 

KFIT - Fitchburg, Massachusetts, USA
Distance from station: E 7mi, 11km
Updated: Mon, 10/16/2017 5:52pm
Clear
Clear
 Wind from N
Wind: N 9 mph , 15 km/h
Temperature: 52°F , 11°C
Dew Point: 39°F , 4°C
Humidity: 62%
Barometer: 30.04 inHg , 1017.3 hPa
Clouds: Clear
Visibility: 10 miles , 16 km
2017/10/16 21:52 KFIT 162152Z AUTO 36008KT 10SM CLR 11/04 A3004 RMK AO2 SLP175 T01110039
KAFN - Jaffrey, New Hampshire, USA
Distance from station: NNW 18mi, 29km
Updated: Mon, 10/16/2017 5:52pm
Overcast
Overcast
 Wind from varies
Wind: varies 6 mph , 9 km/h
Temperature: 48°F , 9°C
Wind Chill: 45°F , 7°C
Dew Point: 37°F , 3°C
Humidity: 66%
Barometer: 30.04 inHg , 1017.3 hPa
Clouds: Overcast
Visibility: 10 miles , 16 km
Cloud details: Overcast 3500 ft
2017/10/16 21:52 KAFN 162152Z AUTO VRB05KT 10SM OVC035 09/03 A3004 RMK AO2 SLP181 T00890028
 
KORH - Worcester, Massachusetts, USA
Distance from station: S 20mi, 32km
Updated: Mon, 10/16/2017 5:54pm
Clear
Clear
 Wind from NNW
Wind: NNW 14 mph , 22 km/h
Temperature: 46°F , 8°C
Wind Chill: 40°F , 4°C
Dew Point: 34°F , 1°C
Humidity: 62%
Barometer: 30.02 inHg , 1016.6 hPa
Clouds: Clear
Visibility: 10 miles , 16 km
2017/10/16 21:54 KORH 162154Z 33012KT 10SM CLR 08/01 A3002 RMK AO2 SLP170 T00830011
KORE - Orange, Massachusetts, USA
Distance from station: W 20mi, 33km
Updated: Mon, 10/16/2017 5:52pm
Overcast
Overcast
 Wind from NNW
Wind: NNW 9 mph , 15 km/h
Temperature: 50°F , 10°C
Wind Chill: 46°F , 8°C
Dew Point: 37°F , 3°C
Humidity: 62%
Barometer: 30.05 inHg , 1017.6 hPa
Clouds: Overcast
Visibility: 10 miles , 16 km
Cloud details: Overcast 4600 ft
2017/10/16 21:52 KORE 162152Z AUTO 34008KT 10SM OVC046 10/03 A3005 RMK AO2 SLP176 T01000028 TSNO
 
KASH - Nashua/Boire Fld, New Hampshire, USA
Distance from station: NE 24mi, 39km
Updated: Mon, 10/16/2017 5:56pm
Few Clouds
Few Clouds
 Wind from NW
Wind: NW 18 mph , 30 km/h, Gust: 23 mph , 37 km/h
Temperature: 50°F , 10°C
Wind Chill: 44°F , 7°C
Dew Point: 36°F , 2°C
Humidity: 58%
Barometer: 30.05 inHg , 1017.6 hPa
Clouds: Few Clouds
Visibility: 10 miles , 16 km
Cloud details: Few Clouds 3500 ft
2017/10/16 21:56 KASH 162156Z 32016G20KT 10SM FEW035 10/02 A3005 RMK AO2 SLP186 T01000017
KEEN - Keene/Dillant, New Hampshire, USA
Distance from station: NW 30mi, 48km
Updated: Mon, 10/16/2017 5:56pm
Overcast
Overcast
 Wind from N
Wind: N 8 mph , 13 km/h
Temperature: 50°F , 10°C
Wind Chill: 47°F , 8°C
Dew Point: 36°F , 2°C
Humidity: 58%
Barometer: 30.06 inHg , 1017.9 hPa
Clouds: Overcast
Visibility: 10 miles , 16 km
Cloud details: Overcast 4500 ft
2017/10/16 21:56 KEEN 162156Z AUTO 35007KT 10SM OVC045 10/02 A3006 RMK AO2 SLP201 T01000022
 
KBOS - Boston, Massachusetts, USA
Distance from station: ESE 46mi, 74km
Updated: Mon, 10/16/2017 5:54pm
Mostly cloudy
Mostly cloudy
 Wind from NW
Wind: NW 12 mph , 19 km/h, Gust: 22 mph , 35 km/h
Temperature: 54°F , 12°C
Dew Point: 37°F , 3°C
Humidity: 54%
Barometer: 30.01 inHg , 1016.3 hPa
Clouds: Mostly cloudy
Visibility: 10 miles , 16 km
Cloud details: Few Clouds 4000 ft
Mostly cloudy 13000 ft
Mostly cloudy 21000 ft
2017/10/16 21:54 KBOS 162154Z 32010G19KT 10SM FEW040 BKN130 BKN210 12/03 A3001 RMK AO2 SLP162 T01220033